createdAt,value
2017-05-19T00:01:21.400Z,87.30
2017-05-19T00:03:49.612Z,86.40
2017-05-19T00:06:18.585Z,86.00
2017-05-19T00:08:46.797Z,86.00
2017-05-19T00:11:15.024Z,86.40
2017-05-19T00:13:43.223Z,86.40
2017-05-19T00:16:11.443Z,88.00
2017-05-19T00:18:39.645Z,87.90
2017-05-19T00:21:07.874Z,88.40
2017-05-19T00:23:36.091Z,88.50
2017-05-19T00:26:04.304Z,88.00
2017-05-19T00:28:33.259Z,87.20
2017-05-19T00:31:01.469Z,86.50
2017-05-19T00:33:29.702Z,86.50
2017-05-19T00:35:57.911Z,86.90
2017-05-19T00:38:26.119Z,85.10
2017-05-19T00:40:54.340Z,82.70
2017-05-19T00:43:22.552Z,82.50
2017-05-19T00:45:50.774Z,81.70
2017-05-19T00:48:18.994Z,80.20
2017-05-19T00:50:47.955Z,79.80
2017-05-19T00:53:16.157Z,79.50
2017-05-19T00:55:45.111Z,79.30
2017-05-19T00:58:13.332Z,79.20
2017-05-19T01:00:42.280Z,80.40
2017-05-19T01:03:10.499Z,81.20
2017-05-19T01:05:40.367Z,81.70
2017-05-19T01:08:08.608Z,82.10
2017-05-19T01:10:36.819Z,81.90
2017-05-19T01:13:05.032Z,82.10
2017-05-19T01:15:33.992Z,82.10
2017-05-19T01:18:02.215Z,82.90
2017-05-19T01:20:30.448Z,83.70
2017-05-19T01:22:58.675Z,82.80
2017-05-19T01:25:26.898Z,82.60
2017-05-19T01:27:55.121Z,83.20
2017-05-19T01:30:23.329Z,82.90
2017-05-19T01:32:51.544Z,82.50
2017-05-19T01:35:19.764Z,82.60
2017-05-19T01:37:47.995Z,82.50
2017-05-19T01:40:16.945Z,83.10
2017-05-19T01:42:45.164Z,82.20
2017-05-19T01:45:14.119Z,81.60
2017-05-19T01:47:42.339Z,83.00
2017-05-19T01:50:11.287Z,84.50
2017-05-19T01:52:39.496Z,87.00
2017-05-19T01:55:08.456Z,88.40
2017-05-19T01:57:36.679Z,88.20
2017-05-19T02:00:04.900Z,88.80
2017-05-19T02:02:33.107Z,90.30
2017-05-19T02:05:02.061Z,90.80
2017-05-19T02:07:30.272Z,90.20
2017-05-19T02:09:59.231Z,90.50
2017-05-19T02:12:27.454Z,90.60
2017-05-19T02:14:56.403Z,91.10
2017-05-19T02:17:24.627Z,91.00
2017-05-19T02:19:52.827Z,91.70
2017-05-19T02:22:21.027Z,92.10
2017-05-19T02:24:49.251Z,92.60
2017-05-19T02:27:17.475Z,93.10
2017-05-19T02:30:02.972Z,93.10
2017-05-19T02:32:31.175Z,93.20
2017-05-19T02:35:00.132Z,93.40
2017-05-19T02:37:28.336Z,93.40
2017-05-19T02:39:57.287Z,93.60
2017-05-19T02:42:25.505Z,94.30
2017-05-19T02:44:54.457Z,94.10
2017-05-19T02:47:22.684Z,94.20
2017-05-19T02:49:51.619Z,94.10
2017-05-19T02:52:19.851Z,93.70
2017-05-19T02:54:48.847Z,93.40
2017-05-19T02:57:17.058Z,93.70
2017-05-19T02:59:45.279Z,93.60
2017-05-19T03:02:14.240Z,93.60
2017-05-19T03:04:42.459Z,93.70
2017-05-19T03:07:10.673Z,93.40
2017-05-19T03:09:38.887Z,93.50
2017-05-19T03:12:07.846Z,92.90
2017-05-19T03:14:36.061Z,92.90
2017-05-19T03:17:05.567Z,92.70
2017-05-19T03:19:34.508Z,92.80
2017-05-19T03:22:02.736Z,92.80
2017-05-19T03:24:31.695Z,92.60
2017-05-19T03:26:59.919Z,93.00
2017-05-19T03:29:28.128Z,92.90
2017-05-19T03:31:56.332Z,92.80
2017-05-19T03:34:24.555Z,92.80
2017-05-19T03:36:52.767Z,93.00
2017-05-19T03:39:21.003Z,93.10
2017-05-19T03:41:49.219Z,93.20
2017-05-19T03:44:17.436Z,93.20
2017-05-19T03:46:45.648Z,93.30
2017-05-19T03:49:13.852Z,93.20
2017-05-19T03:51:42.077Z,93.20
2017-05-19T03:54:10.291Z,93.60
2017-05-19T03:56:38.503Z,94.00
2017-05-19T03:59:07.459Z,94.50
2017-05-19T04:01:35.683Z,94.70
2017-05-19T04:04:03.894Z,94.90
2017-05-19T04:06:32.096Z,94.70
2017-05-19T04:09:00.315Z,94.10
2017-05-19T04:11:28.535Z,94.30
2017-05-19T04:13:56.758Z,94.40
2017-05-19T04:16:24.972Z,94.40
2017-05-19T04:18:53.192Z,94.30
2017-05-19T04:21:22.136Z,94.70
2017-05-19T04:23:50.347Z,94.60
2017-05-19T04:26:19.320Z,94.90
2017-05-19T04:28:47.607Z,95.30
2017-05-19T04:31:15.878Z,95.70
2017-05-19T04:33:44.091Z,95.30
2017-05-19T04:36:12.305Z,95.20
2017-05-19T04:38:40.767Z,95.10
2017-05-19T04:41:08.967Z,95.00
2017-05-19T04:43:37.179Z,95.00
2017-05-19T04:46:06.132Z,95.20
2017-05-19T04:48:34.357Z,95.40
2017-05-19T04:51:02.579Z,95.50
2017-05-19T04:53:30.807Z,95.60
2017-05-19T04:55:59.748Z,95.50
2017-05-19T04:58:27.953Z,95.20
2017-05-19T05:00:57.807Z,95.40
2017-05-19T05:03:26.016Z,95.20
2017-05-19T05:05:54.238Z,95.20
2017-05-19T05:08:22.457Z,94.80
2017-05-19T05:10:50.679Z,94.30
2017-05-19T05:13:19.627Z,93.40
2017-05-19T05:15:47.839Z,93.20
2017-05-19T05:18:16.795Z,93.20
2017-05-19T05:20:45.020Z,93.00
2017-05-19T05:23:13.240Z,92.80
2017-05-19T05:25:41.451Z,92.80
2017-05-19T05:28:10.428Z,92.80
2017-05-19T05:30:38.640Z,92.80
2017-05-19T05:33:06.855Z,93.20
2017-05-19T05:35:35.080Z,93.50
2017-05-19T05:38:04.027Z,93.10
2017-05-19T05:41:09.036Z,92.90
2017-05-19T05:43:37.255Z,93.00
2017-05-19T05:46:05.470Z,93.20
2017-05-19T05:48:33.704Z,93.20
2017-05-19T05:51:01.920Z,92.70
2017-05-19T05:53:30.147Z,92.60
2017-05-19T05:55:58.371Z,92.80
2017-05-19T05:58:26.588Z,93.20
2017-05-19T06:00:54.813Z,93.50
2017-05-19T06:03:23.039Z,93.50
2017-05-19T06:05:51.255Z,92.80
2017-05-19T06:08:19.471Z,92.80
2017-05-19T06:10:47.695Z,92.90
2017-05-19T06:13:15.922Z,93.20
2017-05-19T06:15:44.147Z,93.30
2017-05-19T06:18:12.379Z,93.40
2017-05-19T06:20:40.592Z,93.10
2017-05-19T06:23:08.835Z,92.50
2017-05-19T06:25:37.056Z,92.50
2017-05-19T06:28:05.286Z,92.80
2017-05-19T06:30:33.503Z,93.50
2017-05-19T06:33:01.741Z,93.80
2017-05-19T06:35:29.967Z,94.10
2017-05-19T06:37:58.192Z,94.50
2017-05-19T06:40:26.404Z,94.60
2017-05-19T06:42:54.631Z,94.90
2017-05-19T06:45:22.860Z,94.60
2017-05-19T06:47:51.091Z,94.70
2017-05-19T06:50:19.306Z,94.20
2017-05-19T06:52:47.527Z,94.50
2017-05-19T06:55:15.767Z,94.60
2017-05-19T06:57:43.996Z,94.50
2017-05-19T07:00:12.212Z,94.10
2017-05-19T07:02:40.443Z,93.30
2017-05-19T07:05:08.675Z,92.70
2017-05-19T07:07:36.907Z,92.60
2017-05-19T07:10:05.128Z,92.40
2017-05-19T07:12:33.366Z,92.70
2017-05-19T07:15:01.579Z,92.70
2017-05-19T07:17:29.795Z,92.90
2017-05-19T07:19:58.016Z,93.20
2017-05-19T07:22:26.227Z,92.70
2017-05-19T07:24:54.439Z,92.70
2017-05-19T07:27:22.659Z,92.90
2017-05-19T07:29:50.881Z,92.40
2017-05-19T07:32:19.099Z,92.70
2017-05-19T07:34:47.319Z,92.50
2017-05-19T07:37:15.523Z,91.80
2017-05-19T07:39:43.751Z,91.60
2017-05-19T07:42:11.958Z,91.20
2017-05-19T07:44:40.196Z,90.60
2017-05-19T07:47:08.408Z,91.10
2017-05-19T07:49:36.623Z,91.20
2017-05-19T07:52:04.844Z,91.90
2017-05-19T07:54:33.051Z,91.10
2017-05-19T07:57:01.619Z,91.10
2017-05-19T07:59:29.831Z,90.90
2017-05-19T08:01:58.045Z,91.20
2017-05-19T08:04:26.269Z,88.90
2017-05-19T08:06:54.483Z,88.90
2017-05-19T08:09:22.709Z,89.10
2017-05-19T08:11:50.931Z,88.30
2017-05-19T08:14:19.146Z,88.00
2017-05-19T08:16:47.363Z,86.80
2017-05-19T08:19:15.571Z,86.20
2017-05-19T08:21:43.792Z,89.30
2017-05-19T08:24:12.007Z,88.40
2017-05-19T08:26:40.228Z,88.30
2017-05-19T08:29:08.450Z,86.20
2017-05-19T08:31:36.663Z,84.80
2017-05-19T08:34:04.878Z,86.00
2017-05-19T08:36:33.088Z,87.00
2017-05-19T08:39:01.311Z,86.20
2017-05-19T08:41:29.539Z,85.40
2017-05-19T08:43:57.751Z,84.90
2017-05-19T08:46:25.973Z,83.20
2017-05-19T08:48:54.181Z,83.80
2017-05-19T08:51:22.403Z,81.90
2017-05-19T08:53:50.607Z,82.90
2017-05-19T08:56:18.823Z,80.90
2017-05-19T08:58:47.051Z,79.80
2017-05-19T09:01:15.267Z,80.00
2017-05-19T09:03:43.504Z,78.10
2017-05-19T09:06:12.556Z,79.20
2017-05-19T09:08:40.711Z,80.10
2017-05-19T09:11:08.939Z,77.30
2017-05-19T09:13:37.147Z,80.70
2017-05-19T09:16:05.420Z,80.30
2017-05-19T09:18:33.627Z,79.80
2017-05-19T09:21:01.845Z,80.20
2017-05-19T09:23:30.059Z,80.80
2017-05-19T09:25:58.283Z,80.60
2017-05-19T09:28:26.519Z,82.60
2017-05-19T09:30:54.727Z,84.30
2017-05-19T09:33:22.947Z,84.80
2017-05-19T09:35:51.163Z,83.70
2017-05-19T09:38:19.377Z,83.70
2017-05-19T09:40:47.626Z,82.40
2017-05-19T09:43:15.840Z,83.50
2017-05-19T09:45:44.060Z,84.30
2017-05-19T09:48:12.272Z,82.10
2017-05-19T09:50:40.480Z,83.70
2017-05-19T09:53:08.716Z,84.10
2017-05-19T09:55:36.923Z,83.30
2017-05-19T09:58:05.144Z,84.50
2017-05-19T10:00:33.355Z,85.10
2017-05-19T10:03:01.607Z,85.40
2017-05-19T10:05:30.507Z,84.00
2017-05-19T10:07:58.713Z,82.10
2017-05-19T10:10:26.939Z,83.00
2017-05-19T10:12:55.160Z,82.80
2017-05-19T10:15:23.391Z,83.60
2017-05-19T10:17:51.595Z,83.20
2017-05-19T10:20:19.815Z,82.30
2017-05-19T10:22:48.030Z,82.20
2017-05-19T10:25:22.604Z,82.50
2017-05-19T10:27:50.824Z,81.70
2017-05-19T10:30:19.039Z,82.40
2017-05-19T10:32:47.260Z,82.30
2017-05-19T10:35:15.471Z,83.20
2017-05-19T10:37:43.700Z,83.50
2017-05-19T10:40:11.923Z,84.30
2017-05-19T10:42:40.137Z,84.10
2017-05-19T10:45:08.366Z,84.50
2017-05-19T10:47:36.577Z,84.90
2017-05-19T10:50:04.804Z,86.10
2017-05-19T10:52:33.022Z,86.70
2017-05-19T10:55:01.247Z,85.70
2017-05-19T10:57:29.463Z,84.60
2017-05-19T10:59:57.697Z,84.30
2017-05-19T11:02:25.924Z,84.10
2017-05-19T11:04:54.131Z,83.80
2017-05-19T11:07:22.359Z,84.00
2017-05-19T11:09:50.571Z,83.80
2017-05-19T11:12:18.816Z,84.20
2017-05-19T11:14:47.024Z,85.70
2017-05-19T11:17:15.248Z,87.00
2017-05-19T11:19:43.468Z,88.80
2017-05-19T11:22:11.679Z,88.60
2017-05-19T11:24:39.900Z,89.60
2017-05-19T11:27:09.295Z,90.10
2017-05-19T11:29:37.527Z,90.00
2017-05-19T11:32:05.738Z,90.50
2017-05-19T11:34:33.978Z,90.70
2017-05-19T11:37:02.203Z,91.10
2017-05-19T11:39:30.425Z,91.30
2017-05-19T11:41:58.650Z,91.90
2017-05-19T11:44:26.847Z,91.50
2017-05-19T11:46:55.087Z,92.20
2017-05-19T11:49:23.305Z,92.40
2017-05-19T11:51:51.523Z,92.40
2017-05-19T11:54:19.743Z,92.30
2017-05-19T11:56:47.955Z,92.10
2017-05-19T11:59:16.190Z,92.30
2017-05-19T12:01:44.432Z,92.40
2017-05-19T12:04:12.643Z,92.70
2017-05-19T12:06:40.863Z,92.70
2017-05-19T12:09:09.075Z,92.50
2017-05-19T12:11:41.274Z,92.50
2017-05-19T12:14:09.595Z,92.60
2017-05-19T12:16:37.834Z,92.70
2017-05-19T12:19:06.148Z,92.80
2017-05-19T12:21:34.767Z,92.50
2017-05-19T12:24:03.011Z,92.80
2017-05-19T12:26:31.228Z,92.50
2017-05-19T12:28:59.459Z,92.70
2017-05-19T12:31:27.672Z,92.70
2017-05-19T12:33:55.882Z,93.10
2017-05-19T12:36:24.095Z,93.20
2017-05-19T12:38:52.315Z,92.10
2017-05-19T12:41:20.547Z,92.50
2017-05-19T12:43:48.759Z,92.70
2017-05-19T12:46:16.967Z,93.00
2017-05-19T12:48:45.191Z,93.20
2017-05-19T12:51:13.418Z,92.70
2017-05-19T12:53:41.639Z,92.70
2017-05-19T12:56:09.861Z,92.30
2017-05-19T12:58:38.075Z,92.30
2017-05-19T13:01:06.292Z,92.40
2017-05-19T13:03:34.506Z,91.80
2017-05-19T13:06:02.732Z,91.70
2017-05-19T13:08:30.955Z,92.10
2017-05-19T13:10:59.167Z,91.60
2017-05-19T13:13:27.391Z,92.20
2017-05-19T13:15:55.603Z,92.10
2017-05-19T13:18:23.824Z,92.10
2017-05-19T13:20:52.040Z,91.80
2017-05-19T13:23:20.248Z,92.00
2017-05-19T13:25:48.475Z,92.20
2017-05-19T13:28:16.691Z,91.70
2017-05-19T13:30:45.792Z,91.70
2017-05-19T13:33:14.004Z,91.80
2017-05-19T13:35:42.211Z,91.90
2017-05-19T13:38:10.431Z,91.80
2017-05-19T13:40:38.639Z,92.10
2017-05-19T13:43:06.876Z,92.30
2017-05-19T13:45:35.091Z,91.70
2017-05-19T13:48:03.307Z,92.10
2017-05-19T13:50:31.527Z,92.20
2017-05-19T13:52:59.739Z,92.50
2017-05-19T13:55:27.966Z,92.70
2017-05-19T13:57:56.175Z,92.60
2017-05-19T14:00:24.399Z,92.50
2017-05-19T14:02:52.620Z,92.50
2017-05-19T14:05:20.851Z,92.70
2017-05-19T14:07:49.055Z,92.40
2017-05-19T14:10:17.259Z,92.40
2017-05-19T14:12:45.483Z,92.40
2017-05-19T14:15:13.693Z,92.90
2017-05-19T14:17:41.915Z,92.00
2017-05-19T14:20:10.131Z,92.60
2017-05-19T14:22:38.371Z,92.40
2017-05-19T14:25:06.568Z,92.50
2017-05-19T14:27:34.782Z,92.70
2017-05-19T14:30:02.995Z,92.60
2017-05-19T14:32:31.227Z,92.60
2017-05-19T14:34:59.440Z,92.90
2017-05-19T14:37:27.651Z,92.70
2017-05-19T14:39:55.871Z,92.30
2017-05-19T14:42:24.091Z,92.40
2017-05-19T14:44:52.322Z,92.60
2017-05-19T14:47:20.536Z,92.80
2017-05-19T14:49:48.761Z,92.80
2017-05-19T14:52:16.976Z,92.80
2017-05-19T14:54:45.677Z,92.60
2017-05-19T14:57:13.872Z,92.60
2017-05-19T14:59:42.108Z,92.30
2017-05-19T15:02:10.315Z,92.50
2017-05-19T15:04:38.523Z,91.90
2017-05-19T15:07:06.745Z,92.40
2017-05-19T15:09:35.495Z,92.40
2017-05-19T15:12:03.715Z,92.20
2017-05-19T15:14:31.927Z,91.90
2017-05-19T15:17:00.149Z,92.10
2017-05-19T15:19:28.355Z,92.20
2017-05-19T15:21:56.643Z,92.10
2017-05-19T15:24:24.853Z,92.30
2017-05-19T15:26:53.099Z,92.20
2017-05-19T15:29:21.318Z,92.10
2017-05-19T15:31:49.523Z,92.30
2017-05-19T15:34:17.744Z,92.50
2017-05-19T15:36:45.947Z,92.20
2017-05-19T15:39:14.171Z,92.30
2017-05-19T15:41:42.378Z,92.20
2017-05-19T15:44:10.610Z,92.20
2017-05-19T15:46:38.815Z,91.90
2017-05-19T15:49:07.035Z,91.90
2017-05-19T15:51:35.255Z,92.00
2017-05-19T15:54:03.468Z,92.00
2017-05-19T15:56:31.679Z,92.30
2017-05-19T15:58:59.895Z,92.10
2017-05-19T16:01:28.119Z,92.10
2017-05-19T16:03:56.330Z,91.80
2017-05-19T16:06:24.558Z,92.00
2017-05-19T16:08:52.763Z,92.30
2017-05-19T16:11:20.983Z,92.10
2017-05-19T16:13:49.195Z,92.00
2017-05-19T16:16:17.407Z,91.80
2017-05-19T16:18:45.640Z,92.30
2017-05-19T16:21:13.855Z,92.00
2017-05-19T16:23:42.077Z,91.90
2017-05-19T16:26:10.289Z,91.90
2017-05-19T16:28:38.533Z,91.60
2017-05-19T16:31:06.739Z,91.60
2017-05-19T16:33:34.965Z,91.70
2017-05-19T16:36:03.172Z,91.80
2017-05-19T16:38:31.416Z,91.80
2017-05-19T16:40:59.638Z,92.10
2017-05-19T16:43:27.847Z,91.90
2017-05-19T16:45:56.075Z,91.90
2017-05-19T16:48:24.288Z,91.80
2017-05-19T16:50:52.507Z,91.60
2017-05-19T16:53:20.723Z,91.60
2017-05-19T16:55:48.956Z,91.90
2017-05-19T16:58:17.179Z,91.90
2017-05-19T17:00:45.400Z,91.60
2017-05-19T17:03:13.607Z,91.90
2017-05-19T17:05:41.834Z,92.10
2017-05-19T17:08:10.040Z,92.00
2017-05-19T17:10:38.256Z,92.00
2017-05-19T17:13:06.478Z,92.30
2017-05-19T17:15:34.688Z,92.30
2017-05-19T17:18:02.909Z,92.40
2017-05-19T17:20:31.115Z,92.00
2017-05-19T17:22:59.329Z,91.80
2017-05-19T17:25:27.551Z,91.90
2017-05-19T17:27:55.775Z,91.90
2017-05-19T17:30:23.982Z,92.10
2017-05-19T17:32:52.208Z,92.10
2017-05-19T17:35:20.415Z,92.00
2017-05-19T17:37:48.625Z,91.80
2017-05-19T17:40:22.699Z,91.80
2017-05-19T17:42:50.915Z,91.80
2017-05-19T17:45:19.140Z,92.20
2017-05-19T17:47:47.357Z,92.10
2017-05-19T17:50:15.623Z,92.10
2017-05-19T17:52:43.839Z,92.30
2017-05-19T17:55:12.059Z,92.70
2017-05-19T17:57:40.271Z,92.60
2017-05-19T18:00:08.852Z,92.10
2017-05-19T18:02:37.100Z,92.10
2017-05-19T18:05:05.325Z,91.60
2017-05-19T18:07:33.542Z,91.50
2017-05-19T18:10:01.764Z,91.50
2017-05-19T18:12:29.975Z,91.50
2017-05-19T18:14:58.196Z,91.40
2017-05-19T18:17:26.408Z,91.50
2017-05-19T18:19:54.624Z,91.70
2017-05-19T18:22:22.849Z,92.00
2017-05-19T18:24:51.063Z,91.80
2017-05-19T18:27:19.811Z,91.50
2017-05-19T18:29:48.029Z,91.10
2017-05-19T18:32:16.271Z,91.00
2017-05-19T18:34:44.479Z,90.70
2017-05-19T18:37:12.702Z,91.20
2017-05-19T18:39:40.920Z,91.30
2017-05-19T18:42:09.134Z,91.00
2017-05-19T18:44:37.431Z,91.50
2017-05-19T18:47:05.711Z,91.40
2017-05-19T18:49:33.918Z,91.30
2017-05-19T18:52:02.147Z,91.50
2017-05-19T18:54:30.360Z,91.60
2017-05-19T18:56:58.595Z,91.70
2017-05-19T18:59:26.808Z,91.70
2017-05-19T19:01:55.035Z,91.80
2017-05-19T19:04:23.239Z,91.60
2017-05-19T19:06:51.452Z,91.50
2017-05-19T19:09:19.664Z,91.60
2017-05-19T19:11:47.892Z,91.50
2017-05-19T19:14:16.128Z,91.60
2017-05-19T19:16:44.415Z,91.60
2017-05-19T19:19:12.627Z,92.20
2017-05-19T19:21:40.858Z,91.50
2017-05-19T19:24:09.143Z,91.40
2017-05-19T19:26:37.423Z,91.40
2017-05-19T19:29:05.692Z,91.50
2017-05-19T19:31:33.969Z,91.50
2017-05-19T19:34:02.187Z,91.40
2017-05-19T19:36:30.403Z,91.40
2017-05-19T19:38:58.627Z,91.60
2017-05-19T19:41:26.853Z,91.60
2017-05-19T19:43:55.143Z,91.60
2017-05-19T19:46:23.415Z,91.40
2017-05-19T19:48:51.691Z,91.30
2017-05-19T19:51:19.901Z,91.30
2017-05-19T19:53:48.128Z,91.00
2017-05-19T19:56:16.345Z,90.90
2017-05-19T19:58:44.628Z,90.80
2017-05-19T20:01:13.692Z,90.80
2017-05-19T20:03:41.916Z,90.90
2017-05-19T20:06:10.123Z,90.90
2017-05-19T20:08:38.344Z,90.80
2017-05-19T20:11:06.561Z,90.70
2017-05-19T20:13:34.777Z,90.60
2017-05-19T20:16:02.991Z,90.60
2017-05-19T20:18:31.211Z,90.60
2017-05-19T20:20:59.423Z,90.60
2017-05-19T20:23:27.668Z,90.50
2017-05-19T20:25:55.878Z,90.50
2017-05-19T20:28:24.129Z,90.20
2017-05-19T20:30:52.338Z,90.50
2017-05-19T20:33:20.551Z,90.30
2017-05-19T20:35:48.820Z,90.60
2017-05-19T20:38:17.400Z,90.60
2017-05-19T20:40:45.623Z,90.20
2017-05-19T20:43:13.836Z,90.30
2017-05-19T20:45:42.056Z,90.50
2017-05-19T20:48:10.268Z,90.40
2017-05-19T20:50:38.479Z,91.00
2017-05-19T20:53:06.687Z,91.20
2017-05-19T20:55:34.915Z,91.00
2017-05-19T20:58:03.133Z,91.10
2017-05-19T21:00:31.355Z,90.90
2017-05-19T21:02:59.567Z,90.90
2017-05-19T21:05:27.784Z,91.00
2017-05-19T21:07:55.993Z,91.10
2017-05-19T21:10:24.203Z,91.20
2017-05-19T21:12:52.407Z,91.20
2017-05-19T21:15:20.751Z,91.10
2017-05-19T21:17:49.015Z,90.90
2017-05-19T21:20:17.290Z,91.20
2017-05-19T21:22:45.575Z,91.20
2017-05-19T21:25:13.842Z,91.30
2017-05-19T21:27:42.048Z,91.20
2017-05-19T21:30:10.295Z,91.20
2017-05-19T21:32:38.575Z,91.20
2017-05-19T21:35:06.852Z,91.40
2017-05-19T21:37:35.127Z,91.20
2017-05-19T21:40:03.403Z,90.60
2017-05-19T21:42:31.689Z,90.60
2017-05-19T21:44:59.947Z,90.50
2017-05-19T21:47:28.171Z,90.30
2017-05-19T21:49:56.409Z,90.40
2017-05-19T21:52:24.679Z,90.20
2017-05-19T21:54:52.898Z,90.20
2017-05-19T21:57:21.127Z,90.00
2017-05-19T21:59:49.347Z,90.00
2017-05-19T22:02:17.567Z,89.80
2017-05-19T22:04:45.782Z,89.90
2017-05-19T22:07:14.012Z,90.10
2017-05-19T22:09:42.227Z,89.60
2017-05-19T22:12:10.455Z,90.10
2017-05-19T22:14:38.663Z,89.90
2017-05-19T22:17:06.931Z,89.70
2017-05-19T22:19:35.148Z,89.30
2017-05-19T22:22:04.059Z,89.20
2017-05-19T22:24:32.280Z,89.10
2017-05-19T22:27:00.502Z,89.20
2017-05-19T22:29:28.719Z,90.20
2017-05-19T22:31:56.926Z,90.30
2017-05-19T22:34:25.136Z,89.50
2017-05-19T22:36:53.371Z,89.50
2017-05-19T22:39:21.592Z,89.40
2017-05-19T22:41:49.802Z,89.40
2017-05-19T22:44:18.028Z,88.90
2017-05-19T22:46:46.262Z,89.00
2017-05-19T22:49:14.987Z,89.10
2017-05-19T22:51:43.200Z,88.70
2017-05-19T22:54:11.439Z,89.90
2017-05-19T22:56:39.642Z,89.50
2017-05-19T22:59:07.852Z,89.50
2017-05-19T23:01:36.069Z,89.30
2017-05-19T23:04:04.271Z,89.30
2017-05-19T23:06:32.489Z,89.40
2017-05-19T23:09:00.699Z,89.70
2017-05-19T23:11:29.420Z,89.30
2017-05-19T23:13:57.627Z,89.20
2017-05-19T23:16:25.841Z,89.50
2017-05-19T23:18:54.059Z,89.70
2017-05-19T23:21:22.259Z,90.00
2017-05-19T23:23:50.475Z,90.20
2017-05-19T23:26:18.675Z,90.30
2017-05-19T23:28:46.920Z,90.20
2017-05-19T23:31:15.131Z,90.20
2017-05-19T23:33:43.355Z,90.30
2017-05-19T23:36:11.564Z,90.30
2017-05-19T23:38:39.769Z,90.30
2017-05-19T23:41:09.847Z,90.50
2017-05-19T23:43:38.055Z,90.10
2017-05-19T23:46:06.284Z,90.10
2017-05-19T23:48:34.483Z,90.20
2017-05-19T23:51:02.700Z,90.00
2017-05-19T23:53:30.925Z,90.00
2017-05-19T23:55:59.136Z,90.00
2017-05-19T23:58:27.355Z,90.00
